createdAt,value
2022-09-15T04:00:19.055Z,100327.69
2022-09-15T04:01:20.876Z,100328.54
2022-09-15T04:02:22.776Z,100329.39
2022-09-15T04:03:24.567Z,100327.69
2022-09-15T04:04:26.379Z,100323.30
2022-09-15T04:05:28.204Z,100331.16
2022-09-15T04:06:30.336Z,100330.28
2022-09-15T04:07:32.161Z,100318.90
2022-09-15T04:08:33.956Z,100322.41
2022-09-15T04:09:35.760Z,100312.77
2022-09-15T04:10:37.900Z,100311.89
2022-09-15T04:11:39.686Z,100317.13
2022-09-15T04:12:41.489Z,100319.73
2022-09-15T04:13:43.288Z,100314.48
2022-09-15T04:14:45.087Z,100314.48
2022-09-15T04:15:46.939Z,100309.20
2022-09-15T04:16:48.898Z,100320.55
2022-09-15T04:17:50.694Z,100317.08
2022-09-15T04:18:52.509Z,100316.16
2022-09-15T04:19:54.315Z,100317.91
2022-09-15T04:20:56.649Z,100308.27
2022-09-15T04:21:58.472Z,100311.77
2022-09-15T04:23:00.324Z,100310.00
2022-09-15T04:24:02.118Z,100311.75
2022-09-15T04:25:03.922Z,100309.98
2022-09-15T04:26:05.869Z,100307.35
2022-09-15T04:27:07.677Z,100314.34
2022-09-15T04:28:09.472Z,100310.86
2022-09-15T04:29:11.273Z,100312.57
2022-09-15T04:30:14.095Z,100314.31
2022-09-15T04:31:16.015Z,100310.86
2022-09-15T04:32:17.844Z,100313.45
2022-09-15T04:33:19.648Z,100308.20
2022-09-15T04:34:21.436Z,100311.69
2022-09-15T04:35:23.244Z,100312.52
2022-09-15T04:36:25.280Z,100313.43
2022-09-15T04:37:27.403Z,100304.64
2022-09-15T04:38:29.231Z,100311.63
2022-09-15T04:39:31.025Z,100316.84
2022-09-15T04:40:33.209Z,100307.20
2022-09-15T04:41:35.082Z,100310.72
2022-09-15T04:42:36.929Z,100309.80
2022-09-15T04:43:38.781Z,100313.31
2022-09-15T04:44:40.591Z,100303.67
2022-09-15T04:45:42.403Z,100306.30
2022-09-15T04:46:44.394Z,100307.15
2022-09-15T04:47:46.171Z,100301.05
2022-09-15T04:48:47.983Z,100299.27
2022-09-15T04:49:49.794Z,100303.64
2022-09-15T04:50:51.586Z,100300.12
2022-09-15T04:51:53.411Z,100301.84
2022-09-15T04:52:55.205Z,100293.97
2022-09-15T04:53:57.061Z,100295.70
2022-09-15T04:54:58.861Z,100294.82
2022-09-15T04:56:00.657Z,100284.30
2022-09-15T04:57:02.489Z,100282.48
2022-09-15T04:58:04.281Z,100279.86
2022-09-15T04:59:06.093Z,100284.23
2022-09-15T05:00:09.311Z,100281.61
2022-09-15T05:01:11.171Z,100284.20
2022-09-15T05:02:13.132Z,100281.55
2022-09-15T05:03:14.952Z,100278.92
2022-09-15T05:04:16.763Z,100279.77
2022-09-15T05:05:18.563Z,100281.52
2022-09-15T05:06:22.192Z,100279.73
2022-09-15T05:07:24.050Z,100272.72
2022-09-15T05:08:25.852Z,100274.42
2022-09-15T05:09:27.738Z,100278.80
2022-09-15T05:10:29.958Z,100272.69
2022-09-15T05:11:31.743Z,100276.14
2022-09-15T05:12:33.482Z,100276.99
2022-09-15T05:13:35.290Z,100283.12
2022-09-15T05:14:37.087Z,100278.73
2022-09-15T05:15:38.905Z,100282.14
2022-09-15T05:16:40.881Z,100283.88
2022-09-15T05:17:42.761Z,100282.11
2022-09-15T05:18:47.669Z,100279.45
2022-09-15T05:19:49.481Z,100282.94
2022-09-15T05:20:51.385Z,100282.91
2022-09-15T05:21:53.192Z,100284.61
2022-09-15T05:22:55.030Z,100289.83
2022-09-15T05:23:56.944Z,100285.40
2022-09-15T05:24:58.761Z,100290.59
2022-09-15T05:26:00.564Z,100287.89
2022-09-15T05:27:02.381Z,100288.75
2022-09-15T05:28:04.227Z,100288.68
2022-09-15T05:29:06.034Z,100286.94
2022-09-15T05:30:37.705Z,100295.64
2022-09-15T05:31:12.635Z,100299.09
2022-09-15T05:32:14.484Z,100295.57
2022-09-15T05:33:16.336Z,100297.31
2022-09-15T05:34:18.146Z,100299.05
2022-09-15T05:35:19.946Z,100298.98
2022-09-15T05:36:23.289Z,100300.69
2022-09-15T05:37:25.108Z,100301.55
2022-09-15T05:38:26.940Z,100305.91
2022-09-15T05:39:28.761Z,100302.36
2022-09-15T05:40:31.179Z,100300.59
2022-09-15T05:41:32.974Z,100295.30
2022-09-15T05:42:34.777Z,100303.15
2022-09-15T05:43:36.596Z,100301.41
2022-09-15T05:44:38.396Z,100303.11
2022-09-15T05:45:40.221Z,100303.08
2022-09-15T05:46:42.169Z,100301.34
2022-09-15T05:47:43.965Z,100309.19
2022-09-15T05:48:45.796Z,100302.13
2022-09-15T05:49:47.600Z,100305.60
2022-09-15T05:50:49.507Z,100301.23
2022-09-15T05:51:51.315Z,100306.45
2022-09-15T05:52:53.172Z,100296.80
2022-09-15T05:53:55.016Z,100297.65
2022-09-15T05:54:59.171Z,100301.98
2022-09-15T05:56:00.565Z,100301.06
2022-09-15T05:57:02.386Z,100303.66
2022-09-15T05:58:04.219Z,100296.62
2022-09-15T05:59:06.079Z,100291.33
2022-09-15T06:00:08.158Z,100288.67
2022-09-15T06:01:09.855Z,100290.41
2022-09-15T06:02:11.817Z,100288.63
2022-09-15T06:03:13.699Z,100286.89
2022-09-15T06:04:15.501Z,100276.34
2022-09-15T06:05:17.322Z,100262.34
2022-09-15T06:06:19.416Z,100262.34
2022-09-15T06:07:21.231Z,100273.60
2022-09-15T06:08:23.058Z,100276.19
2022-09-15T06:09:24.891Z,100275.30
2022-09-15T06:10:27.786Z,100283.16
2022-09-15T06:11:29.634Z,100284.86
2022-09-15T06:12:31.476Z,100277.86
2022-09-15T06:13:33.243Z,100276.94
2022-09-15T06:14:35.068Z,100280.45
2022-09-15T06:15:36.859Z,100282.12
2022-09-15T06:16:39.184Z,100282.08
2022-09-15T06:17:40.971Z,100287.30
2022-09-15T06:18:42.771Z,100288.15
2022-09-15T06:19:44.609Z,100284.59
2022-09-15T06:20:46.899Z,100280.19
2022-09-15T06:21:48.713Z,100286.30
2022-09-15T06:22:50.504Z,100285.41
2022-09-15T06:23:52.315Z,100289.74
2022-09-15T06:24:54.157Z,100287.08
2022-09-15T06:25:55.946Z,100287.92
2022-09-15T06:26:57.973Z,100286.99
2022-09-15T06:27:59.862Z,100287.81
2022-09-15T06:29:01.663Z,100287.73
2022-09-15T06:30:03.710Z,100288.55
2022-09-15T06:31:05.669Z,100287.61
2022-09-15T06:32:07.549Z,100281.46
2022-09-15T06:33:09.428Z,100278.76
2022-09-15T06:34:11.223Z,100290.09
2022-09-15T06:35:13.063Z,100281.27
2022-09-15T06:36:16.090Z,100282.08
2022-09-15T06:37:17.806Z,100284.67
2022-09-15T06:38:19.491Z,100279.33
2022-09-15T06:39:21.296Z,100280.20
2022-09-15T06:40:24.459Z,100279.20
2022-09-15T06:41:26.349Z,100275.67
2022-09-15T06:42:28.224Z,100275.67
2022-09-15T06:43:30.019Z,100282.55
2022-09-15T06:44:31.813Z,100287.73
2022-09-15T06:45:33.677Z,100287.70
2022-09-15T06:46:35.629Z,100279.77
2022-09-15T06:47:37.480Z,100280.53
2022-09-15T06:48:39.273Z,100282.23
2022-09-15T06:49:41.072Z,100290.94
2022-09-15T06:50:42.995Z,100286.47
2022-09-15T06:51:44.709Z,100285.50
2022-09-15T06:52:46.508Z,100289.83
2022-09-15T06:53:48.310Z,100285.38
2022-09-15T06:54:50.023Z,100278.32
2022-09-15T06:55:52.957Z,100279.09
2022-09-15T06:56:55.379Z,100275.43
2022-09-15T06:57:57.263Z,100275.43
2022-09-15T06:58:59.064Z,100272.75
2022-09-15T07:00:00.788Z,100276.16
2022-09-15T07:01:02.642Z,100269.09
2022-09-15T07:02:05.382Z,100268.16
2022-09-15T07:03:07.329Z,100266.33
2022-09-15T07:04:09.158Z,100268.92
2022-09-15T07:05:10.972Z,100270.58
2022-09-15T07:06:13.221Z,100274.05
2022-09-15T07:07:15.016Z,100263.47
2022-09-15T07:08:16.825Z,100263.38
2022-09-15T07:09:18.651Z,100265.13
2022-09-15T07:10:21.580Z,100268.52
2022-09-15T07:11:23.401Z,100270.25
2022-09-15T07:12:25.208Z,100265.75
2022-09-15T07:13:27.042Z,100265.66
2022-09-15T07:14:28.829Z,100263.91
2022-09-15T07:15:30.623Z,100268.23
2022-09-15T07:16:32.676Z,100266.39
2022-09-15T07:17:34.476Z,100274.29
2022-09-15T07:18:40.978Z,100277.73
2022-09-15T07:19:39.875Z,100273.31
2022-09-15T07:20:41.766Z,100275.91
2022-09-15T07:21:43.665Z,100278.49
2022-09-15T07:22:45.501Z,100284.64
2022-09-15T07:23:47.291Z,100278.45
2022-09-15T07:24:49.095Z,100275.81
2022-09-15T07:25:51.036Z,100284.59
2022-09-15T07:26:52.998Z,100285.45
2022-09-15T07:27:54.790Z,100288.09
2022-09-15T07:28:56.704Z,100289.83
2022-09-15T07:29:58.499Z,100288.04
2022-09-15T07:31:00.390Z,100288.04
2022-09-15T07:32:02.264Z,100287.14
2022-09-15T07:33:04.008Z,100288.89
2022-09-15T07:34:05.820Z,100290.63
2022-09-15T07:35:07.627Z,100287.09
2022-09-15T07:36:09.619Z,100282.67
2022-09-15T07:37:11.456Z,100285.31
2022-09-15T07:38:13.260Z,100290.58
2022-09-15T07:39:15.068Z,100287.05
2022-09-15T07:40:18.455Z,100287.05
2022-09-15T07:41:20.282Z,100286.12
2022-09-15T07:42:22.744Z,100286.12
2022-09-15T07:43:24.554Z,100279.14
2022-09-15T07:44:26.427Z,100286.07
2022-09-15T07:45:28.267Z,100282.53
2022-09-15T07:46:30.336Z,100281.64
2022-09-15T07:47:32.171Z,100286.86
2022-09-15T07:48:33.958Z,100284.23
2022-09-15T07:49:35.757Z,100273.69
2022-09-15T07:50:37.691Z,100277.17
2022-09-15T07:51:39.484Z,100282.44
2022-09-15T07:52:41.312Z,100282.39
2022-09-15T07:53:43.127Z,100277.08
2022-09-15T07:54:44.967Z,100285.87
2022-09-15T07:55:46.757Z,100279.71
2022-09-15T07:56:48.648Z,100282.30
2022-09-15T07:57:50.381Z,100270.81
2022-09-15T07:58:52.189Z,100274.34
2022-09-15T07:59:54.123Z,100274.34
2022-09-15T08:00:56.247Z,100277.81
2022-09-15T08:01:58.238Z,100271.66
2022-09-15T08:03:00.024Z,100269.91
2022-09-15T08:04:01.813Z,100276.03
2022-09-15T08:05:03.619Z,100277.77
2022-09-15T08:06:05.616Z,100269.86
2022-09-15T08:07:07.417Z,100273.30
2022-09-15T08:08:09.254Z,100277.67
2022-09-15T08:09:11.055Z,100275.89
2022-09-15T08:10:14.373Z,100270.57
2022-09-15T08:11:18.692Z,100271.42
2022-09-15T08:12:19.784Z,100273.16
2022-09-15T08:13:21.684Z,100275.75
2022-09-15T08:14:23.487Z,100273.11
2022-09-15T08:15:25.698Z,100273.96
2022-09-15T08:16:27.672Z,100263.42
2022-09-15T08:17:29.515Z,100273.06
2022-09-15T08:18:31.362Z,100265.20
2022-09-15T08:19:33.153Z,100267.84
2022-09-15T08:20:35.017Z,100266.05
2022-09-15T08:21:36.818Z,100266.05
2022-09-15T08:22:38.626Z,100261.72
2022-09-15T08:23:40.482Z,100255.56
2022-09-15T08:24:42.444Z,100255.56
2022-09-15T08:25:44.261Z,100256.49
2022-09-15T08:26:46.363Z,100252.92
2022-09-15T08:27:48.160Z,100248.59
2022-09-15T08:28:50.009Z,100244.22
2022-09-15T08:29:51.810Z,100239.80
2022-09-15T08:30:54.322Z,100235.41
2022-09-15T08:31:56.086Z,100238.09
2022-09-15T08:32:57.886Z,100234.57
2022-09-15T08:33:59.719Z,100230.23
2022-09-15T08:35:01.527Z,100237.25
2022-09-15T08:36:03.431Z,100231.13
2022-09-15T08:37:05.229Z,100232.92
2022-09-15T08:38:07.026Z,100233.81
2022-09-15T08:39:08.913Z,100231.13
2022-09-15T08:40:11.097Z,100225.06
2022-09-15T08:41:12.836Z,100230.37
2022-09-15T08:42:14.633Z,100231.23
2022-09-15T08:43:16.449Z,100224.22
2022-09-15T08:44:18.305Z,100215.47
2022-09-15T08:45:20.102Z,100215.47
2022-09-15T08:47:46.081Z,100215.47
2022-09-15T08:48:47.876Z,100207.61
2022-09-15T08:49:52.327Z,100213.73
2022-09-15T08:50:53.345Z,100206.76
2022-09-15T08:51:55.181Z,100200.60
2022-09-15T08:52:56.980Z,100199.75
2022-09-15T08:53:58.771Z,100205.88
2022-09-15T08:55:00.615Z,100198.90
2022-09-15T08:56:02.411Z,100200.70
2022-09-15T08:57:04.255Z,100204.22
2022-09-15T08:58:06.063Z,100201.59
2022-09-15T08:59:07.867Z,100200.70
2022-09-15T09:00:10.922Z,100191.95
2022-09-15T09:01:12.795Z,100189.31
2022-09-15T09:02:14.842Z,100189.27
2022-09-15T09:03:16.655Z,100186.63
2022-09-15T09:04:18.511Z,100181.41
2022-09-15T09:05:20.358Z,100183.19
2022-09-15T09:06:23.168Z,100182.30
2022-09-15T09:07:25.006Z,100188.47
2022-09-15T09:08:26.802Z,100191.11
2022-09-15T09:09:28.731Z,100183.25
2022-09-15T09:10:30.776Z,100176.28
2022-09-15T09:11:32.594Z,100182.45
2022-09-15T09:12:34.401Z,100172.81
2022-09-15T09:13:36.201Z,100176.33
2022-09-15T09:14:38.002Z,100172.81
2022-09-15T09:15:39.995Z,100167.55
2022-09-15T09:16:41.902Z,100179.06
2022-09-15T09:17:43.939Z,100179.06
2022-09-15T09:18:45.742Z,100177.33
2022-09-15T09:19:47.559Z,100179.11
2022-09-15T09:20:49.692Z,100177.38
2022-09-15T09:21:51.503Z,100175.64
2022-09-15T09:22:53.313Z,100183.55
2022-09-15T09:23:55.112Z,100180.11
2022-09-15T09:24:56.937Z,100178.38
2022-09-15T09:25:58.781Z,100178.38
2022-09-15T09:27:00.688Z,100181.06
2022-09-15T09:28:02.482Z,100179.31
2022-09-15T09:29:04.312Z,100181.99
2022-09-15T09:30:06.419Z,100182.84
2022-09-15T09:31:08.492Z,100182.84
2022-09-15T09:32:10.374Z,100177.62
2022-09-15T09:33:12.280Z,100167.94
2022-09-15T09:34:14.073Z,100168.87
2022-09-15T09:35:15.884Z,100173.25
2022-09-15T09:36:18.021Z,100160.08
2022-09-15T09:37:19.826Z,100159.23
2022-09-15T09:38:21.620Z,100157.50
2022-09-15T09:39:23.438Z,100156.59
2022-09-15T09:40:25.785Z,100161.02
2022-09-15T09:41:27.710Z,100154.91
2022-09-15T09:42:29.821Z,100153.16
2022-09-15T09:43:31.616Z,100156.70
2022-09-15T09:44:33.424Z,100149.69
2022-09-15T09:45:35.236Z,100150.59
2022-09-15T09:46:37.328Z,100145.33
2022-09-15T09:47:39.308Z,100148.00
2022-09-15T09:48:41.148Z,100145.37
2022-09-15T09:49:42.951Z,100141.00
2022-09-15T09:50:44.859Z,100146.27
2022-09-15T09:51:46.803Z,100141.00
2022-09-15T09:52:48.608Z,100137.48
2022-09-15T09:53:50.444Z,100137.48
2022-09-15T09:54:52.228Z,100136.64
2022-09-15T09:55:54.041Z,100142.75
2022-09-15T09:56:56.277Z,100143.69
2022-09-15T09:57:58.073Z,100137.48
2022-09-15T09:58:59.887Z,100132.22
2022-09-15T10:00:01.816Z,100123.42
2022-09-15T10:01:03.659Z,100131.32
2022-09-15T10:02:05.461Z,100130.45
2022-09-15T10:03:07.270Z,100126.94
2022-09-15T10:04:09.292Z,100132.20
2022-09-15T10:05:11.172Z,100123.42
2022-09-15T10:06:13.300Z,100119.94
2022-09-15T10:07:15.164Z,100125.20
2022-09-15T10:08:16.941Z,100125.20
2022-09-15T10:09:18.740Z,100126.05
2022-09-15T10:10:20.648Z,100119.91
2022-09-15T10:11:22.776Z,100112.86
2022-09-15T10:12:24.613Z,100118.13
2022-09-15T10:13:26.408Z,100113.72
2022-09-15T10:14:28.222Z,100105.81
2022-09-15T10:15:30.082Z,100103.12
2022-09-15T10:16:32.242Z,100103.12
2022-09-15T10:17:34.112Z,100097.02
2022-09-15T10:18:35.934Z,100096.11
2022-09-15T10:19:37.772Z,100100.48
2022-09-15T10:20:39.843Z,100097.84
2022-09-15T10:21:41.659Z,100096.86
2022-09-15T10:22:43.513Z,100096.86
2022-09-15T10:23:45.304Z,100101.17
2022-09-15T10:24:47.116Z,100100.28
2022-09-15T10:25:59.258Z,100098.48
2022-09-15T10:26:52.734Z,100099.34
2022-09-15T10:27:54.581Z,100100.22
2022-09-15T10:28:56.356Z,100094.91
2022-09-15T10:29:58.168Z,100087.85
2022-09-15T10:31:00.068Z,100094.85
2022-09-15T10:32:01.902Z,100089.53
2022-09-15T10:33:03.721Z,100096.50
2022-09-15T10:34:05.526Z,100092.06
2022-09-15T10:35:07.345Z,100095.55
2022-09-15T10:36:10.524Z,100090.18
2022-09-15T10:37:12.342Z,100090.18
2022-09-15T10:38:14.172Z,100090.12
2022-09-15T10:39:15.956Z,100089.23
2022-09-15T10:40:18.326Z,100088.33
2022-09-15T10:41:20.172Z,100087.39
2022-09-15T10:42:22.106Z,100082.12
2022-09-15T10:43:23.881Z,100082.06
2022-09-15T10:44:25.690Z,100085.59
2022-09-15T10:45:27.553Z,100082.02
2022-09-15T10:46:29.779Z,100084.59
2022-09-15T10:47:31.581Z,100081.96
2022-09-15T10:48:33.426Z,100081.91
2022-09-15T10:49:35.222Z,100082.80
2022-09-15T10:50:37.159Z,100079.22
2022-09-15T10:51:38.961Z,100085.38
2022-09-15T10:52:40.757Z,100081.86
2022-09-15T10:53:42.477Z,100073.90
2022-09-15T10:54:44.167Z,100062.50
2022-09-15T10:55:52.911Z,100068.63
2022-09-15T10:56:49.924Z,100059.81
2022-09-15T10:57:51.714Z,100067.72
2022-09-15T10:58:53.571Z,100066.82
2022-09-15T10:59:55.344Z,100061.55
2022-09-15T11:00:57.299Z,100066.82
2022-09-15T11:01:59.186Z,100059.77
2022-09-15T11:03:01.247Z,100065.03
2022-09-15T11:04:03.100Z,100062.34
2022-09-15T11:05:04.920Z,100061.44
2022-09-15T11:06:06.847Z,100056.17
2022-09-15T11:07:08.639Z,100056.22
2022-09-15T11:08:10.448Z,100050.95
2022-09-15T11:09:12.292Z,100055.29
2022-09-15T11:10:14.178Z,100050.90
2022-09-15T11:11:15.983Z,100045.62
2022-09-15T11:12:17.675Z,100042.99
2022-09-15T11:13:19.488Z,100043.84
2022-09-15T11:14:21.329Z,100039.47
2022-09-15T11:15:23.125Z,100032.45
2022-09-15T11:16:26.594Z,100034.20
2022-09-15T11:17:28.345Z,100030.72
2022-09-15T11:18:30.152Z,100034.20
2022-09-15T11:19:31.980Z,100026.30
2022-09-15T11:20:33.887Z,100023.61
2022-09-15T11:21:35.821Z,100023.55
2022-09-15T11:22:37.514Z,100027.06
2022-09-15T11:23:39.614Z,100027.06
2022-09-15T11:24:41.551Z,100022.70
2022-09-15T11:25:43.468Z,100026.13
2022-09-15T11:26:45.565Z,100023.50
2022-09-15T11:27:47.378Z,100021.80
2022-09-15T11:28:49.166Z,100024.44
2022-09-15T11:29:50.999Z,100025.23
2022-09-15T11:30:52.916Z,100028.77
2022-09-15T11:31:54.818Z,100029.66
2022-09-15T11:32:58.116Z,100026.08
2022-09-15T11:34:00.360Z,100026.95
2022-09-15T11:35:02.268Z,100026.95
2022-09-15T11:36:04.179Z,100032.23
2022-09-15T11:37:05.920Z,100031.33
2022-09-15T11:38:11.101Z,100027.75
2022-09-15T11:39:11.327Z,100029.48
2022-09-15T11:40:13.612Z,100027.70
2022-09-15T11:41:15.383Z,100026.80
2022-09-15T11:42:17.171Z,100027.64
2022-09-15T11:43:18.997Z,100022.38
2022-09-15T11:44:20.980Z,100017.98
2022-09-15T11:45:22.812Z,100025.83
2022-09-15T11:46:25.552Z,100026.63
2022-09-15T11:47:27.341Z,100021.36
2022-09-15T11:48:29.151Z,100022.20
2022-09-15T11:49:30.951Z,100023.94
2022-09-15T11:50:32.983Z,100014.24
2022-09-15T11:51:34.795Z,100018.61
2022-09-15T11:52:36.607Z,100009.80
2022-09-15T11:53:38.409Z,100018.55
2022-09-15T11:54:40.121Z,100018.50
2022-09-15T11:55:41.955Z,100014.95
2022-09-15T11:56:43.739Z,100017.53
2022-09-15T11:57:45.694Z,100018.38
2022-09-15T11:58:47.506Z,100017.48
2022-09-15T11:59:49.312Z,100013.05
2022-09-15T12:00:51.346Z,100018.33
2022-09-15T12:01:53.090Z,100021.81
2022-09-15T12:02:54.891Z,100012.15
2022-09-15T12:03:56.650Z,100018.27
2022-09-15T12:04:58.454Z,100011.27
2022-09-15T12:06:00.342Z,100010.36
2022-09-15T12:07:02.151Z,100012.09
2022-09-15T12:08:04.114Z,100013.84
2022-09-15T12:09:05.901Z,100001.55
2022-09-15T12:10:08.404Z,100011.21
2022-09-15T12:11:10.218Z,100004.19
2022-09-15T12:12:12.020Z,99998.03
2022-09-15T12:13:13.830Z,100010.30
2022-09-15T12:14:15.630Z,100005.91
2022-09-15T12:15:17.452Z,99998.03
2022-09-15T12:16:20.455Z,99999.76
2022-09-15T12:17:22.200Z,99998.91
2022-09-15T12:18:41.971Z,99997.12
2022-09-15T12:19:27.647Z,99991.84
2022-09-15T12:20:29.751Z,99993.63
2022-09-15T12:21:31.587Z,99991.91
2022-09-15T12:22:33.395Z,99989.21
2022-09-15T12:23:35.296Z,99983.09
2022-09-15T12:24:37.080Z,99994.48
2022-09-15T12:25:38.886Z,99993.63
2022-09-15T12:26:40.823Z,99997.17
2022-09-15T12:27:42.621Z,99992.75
2022-09-15T12:28:44.457Z,99998.03
2022-09-15T12:29:46.225Z,100003.30
2022-09-15T12:30:48.214Z,99998.97
2022-09-15T12:31:49.961Z,100002.45
2022-09-15T12:32:51.777Z,99994.54
2022-09-15T12:33:53.658Z,99998.09
2022-09-15T12:34:55.456Z,100005.14
2022-09-15T12:35:57.260Z,99996.39
2022-09-15T12:38:01.969Z,100003.41
2022-09-15T12:39:03.850Z,99994.66
2022-09-15T12:40:05.930Z,99985.84
2022-09-15T12:41:07.938Z,99992.87
2022-09-15T12:42:09.785Z,99993.75
2022-09-15T12:43:11.599Z,99989.38
2022-09-15T12:44:13.390Z,99988.47
2022-09-15T12:45:15.192Z,99990.28
2022-09-15T12:46:17.458Z,99990.23
2022-09-15T12:47:19.261Z,99990.28
2022-09-15T12:48:21.053Z,99989.44
2022-09-15T12:49:22.857Z,99986.86
2022-09-15T12:50:25.080Z,99986.01
2022-09-15T12:51:26.858Z,99989.55
2022-09-15T12:52:28.695Z,99986.06
2022-09-15T12:53:30.634Z,99983.43
2022-09-15T12:54:32.576Z,99989.55
2022-09-15T12:55:34.366Z,99979.00
2022-09-15T12:56:36.482Z,99982.48
2022-09-15T12:57:38.361Z,99979.00
2022-09-15T12:58:40.170Z,99981.70
2022-09-15T12:59:41.878Z,99980.84
2022-09-15T13:01:06.886Z,99991.39
2022-09-15T13:01:47.526Z,99984.39
2022-09-15T13:02:49.447Z,99987.08
2022-09-15T13:03:51.235Z,99977.44
2022-09-15T13:04:53.057Z,99981.87
2022-09-15T13:05:54.843Z,99981.02
2022-09-15T13:06:56.671Z,99976.59
2022-09-15T13:07:58.497Z,99981.92
2022-09-15T13:09:00.304Z,99978.38
2022-09-15T13:10:02.333Z,99970.53
2022-09-15T13:11:04.189Z,99970.47
2022-09-15T13:12:05.981Z,99970.53
2022-09-15T13:13:07.902Z,99967.95
2022-09-15T13:14:09.713Z,99961.80
2022-09-15T13:15:11.537Z,99970.59
2022-09-15T13:16:13.676Z,99965.38
2022-09-15T13:17:15.468Z,99966.22
2022-09-15T13:18:17.330Z,99966.22
2022-09-15T13:19:19.126Z,99958.38
2022-09-15T13:20:21.132Z,99960.16
2022-09-15T13:21:22.946Z,99961.06
2022-09-15T13:22:24.758Z,99954.91
2022-09-15T13:23:26.603Z,99956.69
2022-09-15T13:24:28.465Z,99948.78
2022-09-15T13:25:30.417Z,99954.06
2022-09-15T13:26:33.991Z,99956.69
2022-09-15T13:27:35.801Z,99953.20
2022-09-15T13:28:37.652Z,99938.30
2022-09-15T13:29:39.445Z,99940.94
2022-09-15T13:30:41.592Z,99938.36
2022-09-15T13:31:43.363Z,99944.42
2022-09-15T13:32:45.175Z,99944.48
2022-09-15T13:35:13.479Z,99940.99
2022-09-15T13:35:54.588Z,99933.14
2022-09-15T13:38:13.510Z,99936.69
2022-09-15T13:39:04.370Z,99941.05
2022-09-15T13:40:06.362Z,99936.69
2022-09-15T13:41:08.189Z,99944.59
2022-09-15T13:42:10.015Z,99939.37
2022-09-15T13:43:11.824Z,99943.73
2022-09-15T13:44:13.655Z,99941.11
2022-09-15T13:45:15.445Z,99938.53
2022-09-15T13:46:17.632Z,99939.37
2022-09-15T13:47:19.479Z,99935.89
2022-09-15T13:48:21.295Z,99931.47
2022-09-15T13:49:23.110Z,99934.10
2022-09-15T13:50:25.042Z,99930.63
2022-09-15T13:51:26.864Z,99921.86
2022-09-15T13:52:28.676Z,99922.72
2022-09-15T13:53:30.480Z,99923.62
2022-09-15T13:54:32.305Z,99917.50
2022-09-15T13:55:34.138Z,99925.41
2022-09-15T13:56:36.030Z,99917.55
2022-09-15T13:59:12.105Z,99905.28
2022-09-15T13:59:45.118Z,99903.53
2022-09-15T14:00:46.989Z,99906.22
2022-09-15T14:01:48.873Z,99899.16
2022-09-15T14:02:50.724Z,99900.07
2022-09-15T14:03:52.558Z,99902.70
2022-09-15T14:04:54.463Z,99901.86
2022-09-15T14:05:56.275Z,99888.73
2022-09-15T14:07:00.778Z,99886.10
2022-09-15T14:08:01.808Z,99898.48
2022-09-15T14:09:03.584Z,99896.75
2022-09-15T14:10:05.537Z,99901.13
2022-09-15T14:11:07.345Z,99902.03
2022-09-15T14:12:09.193Z,99895.91
2022-09-15T14:13:10.990Z,99897.61
2022-09-15T14:14:12.813Z,99895.85
2022-09-15T14:15:14.662Z,99890.58
2022-09-15T14:16:16.830Z,99894.06
2022-09-15T14:17:18.683Z,99891.43
2022-09-15T14:18:20.510Z,99894.06
2022-09-15T14:19:22.284Z,99893.16
2022-09-15T14:20:24.447Z,99887.95
2022-09-15T14:21:26.258Z,99888.84
2022-09-15T14:22:28.066Z,99887.95
2022-09-15T14:23:30.008Z,99884.43
2022-09-15T14:24:31.817Z,99882.73
2022-09-15T14:25:33.668Z,99881.00
2022-09-15T14:26:35.565Z,99884.48
2022-09-15T14:27:37.657Z,99891.48
2022-09-15T14:28:39.477Z,99885.42
2022-09-15T14:29:41.272Z,99885.42
2022-09-15T14:30:43.216Z,99881.91
2022-09-15T14:31:45.078Z,99885.42
2022-09-15T14:32:46.947Z,99880.16
2022-09-15T14:33:48.756Z,99886.22
2022-09-15T14:34:50.557Z,99886.27
2022-09-15T14:35:52.379Z,99878.37
2022-09-15T14:36:54.707Z,99879.22
2022-09-15T14:37:56.502Z,99879.22
2022-09-15T14:38:58.317Z,99884.48
2022-09-15T14:40:00.276Z,99880.09
2022-09-15T14:41:02.275Z,99873.95
2022-09-15T14:42:04.076Z,99870.46
2022-09-15T14:43:05.967Z,99878.37
2022-09-15T14:44:07.770Z,99872.25
2022-09-15T14:46:14.679Z,99867.83
2022-09-15T14:47:16.447Z,99867.83
2022-09-15T14:48:21.014Z,99861.70
2022-09-15T14:49:22.852Z,99865.19
2022-09-15T14:50:26.352Z,99866.92
2022-09-15T14:51:28.394Z,99862.62
2022-09-15T14:52:30.227Z,99864.34
2022-09-15T14:53:32.036Z,99870.52
2022-09-15T14:54:34.784Z,99866.09
2022-09-15T14:55:36.588Z,99868.73
2022-09-15T14:56:38.533Z,99873.09
2022-09-15T14:57:40.355Z,99866.98
2022-09-15T14:58:42.182Z,99862.62
2022-09-15T14:59:43.945Z,99867.89
2022-09-15T15:00:46.261Z,99863.46
2022-09-15T15:01:48.093Z,99865.25
2022-09-15T15:02:49.871Z,99867.00
2022-09-15T15:03:51.684Z,99869.61
2022-09-15T15:04:53.675Z,99869.61
2022-09-15T15:06:02.273Z,99866.98
2022-09-15T15:06:59.464Z,99867.89
2022-09-15T15:08:01.270Z,99864.34
2022-09-15T15:09:03.307Z,99868.67
2022-09-15T15:10:05.315Z,99864.34
2022-09-15T15:11:07.120Z,99871.31
2022-09-15T15:12:08.949Z,99870.41
2022-09-15T15:13:10.780Z,99867.83
2022-09-15T15:14:12.703Z,99862.56
2022-09-15T15:15:14.619Z,99873.09
2022-09-15T15:16:17.434Z,99873.16
2022-09-15T15:17:19.302Z,99868.73
2022-09-15T15:18:21.113Z,99866.16
2022-09-15T15:19:22.986Z,99866.16
2022-09-15T15:20:24.844Z,99864.42
2022-09-15T15:21:26.627Z,99866.21
2022-09-15T15:22:28.592Z,99863.64
2022-09-15T15:23:30.403Z,99869.75
2022-09-15T15:24:32.183Z,99862.78
2022-09-15T15:25:33.972Z,99861.91
2022-09-15T15:26:35.790Z,99866.27
2022-09-15T15:27:38.050Z,99867.17
2022-09-15T15:28:39.869Z,99866.33
2022-09-15T15:29:41.747Z,99864.54
2022-09-15T15:30:43.553Z,99864.54
2022-09-15T15:31:45.584Z,99866.33
2022-09-15T15:32:47.488Z,99867.17
2022-09-15T15:33:49.300Z,99864.59
2022-09-15T15:34:51.113Z,99863.69
2022-09-15T15:35:52.891Z,99860.20
2022-09-15T15:36:54.800Z,99862.84
2022-09-15T15:37:56.631Z,99861.96
2022-09-15T15:38:59.697Z,99858.48
2022-09-15T15:40:01.589Z,99864.59
2022-09-15T15:41:03.439Z,99864.59
2022-09-15T15:42:05.235Z,99859.33
2022-09-15T15:43:07.082Z,99863.75
2022-09-15T15:44:08.920Z,99866.44
2022-09-15T15:45:10.793Z,99866.44
2022-09-15T15:46:12.883Z,99869.08
2022-09-15T15:47:14.740Z,99869.08
2022-09-15T15:48:16.690Z,99869.08
2022-09-15T15:49:18.518Z,99869.92
2022-09-15T15:50:21.055Z,99864.66
2022-09-15T15:51:22.942Z,99867.34
2022-09-15T15:52:24.766Z,99870.86
2022-09-15T15:53:26.608Z,99864.71
2022-09-15T15:54:28.420Z,99866.50
2022-09-15T15:55:30.214Z,99869.98
2022-09-15T15:56:35.890Z,99869.13
2022-09-15T15:57:35.846Z,99869.13
2022-09-15T15:58:37.729Z,99876.19
2022-09-15T15:59:39.571Z,99875.30